createdAt,value
2019-01-11T00:01:02.948Z,21.29
2019-01-11T00:02:12.118Z,21.29
2019-01-11T00:03:20.822Z,21.29
2019-01-11T00:04:29.990Z,21.28
2019-01-11T00:05:39.159Z,21.31
2019-01-11T00:06:48.581Z,21.31
2019-01-11T00:07:58.020Z,21.22
2019-01-11T00:09:07.705Z,21.25
2019-01-11T00:10:17.130Z,21.22
2019-01-11T00:11:26.310Z,21.28
2019-01-11T00:12:35.483Z,21.27
2019-01-11T00:13:44.656Z,21.27
2019-01-11T00:14:53.847Z,21.17
2019-01-11T00:16:03.009Z,21.22
2019-01-11T00:17:12.428Z,21.25
2019-01-11T00:18:21.864Z,21.22
2019-01-11T00:19:30.828Z,21.24
2019-01-11T00:20:40.321Z,21.13
2019-01-11T00:21:49.233Z,21.13
2019-01-11T00:22:58.652Z,21.12
2019-01-11T00:24:08.077Z,21.13
2019-01-11T00:25:17.263Z,21.04
2019-01-11T00:26:26.689Z,21.14
2019-01-11T00:27:36.111Z,21.16
2019-01-11T00:28:46.673Z,21.16
2019-01-11T00:29:55.837Z,21.13
2019-01-11T00:31:05.010Z,21.12
2019-01-11T00:32:14.191Z,21.07
2019-01-11T00:33:23.610Z,21.1
2019-01-11T00:34:33.350Z,21.04
2019-01-11T00:35:42.518Z,21.07
2019-01-11T00:36:51.712Z,21.04
2019-01-11T00:38:01.140Z,21.07
2019-01-11T00:39:10.320Z,21.14
2019-01-11T00:40:19.744Z,21.03
2019-01-11T00:41:28.967Z,21.01
2019-01-11T00:42:38.403Z,21.03
2019-01-11T00:43:47.571Z,20.98
2019-01-11T00:44:56.738Z,20.99
2019-01-11T00:46:05.415Z,20.98
2019-01-11T00:47:15.129Z,20.98
2019-01-11T00:48:24.833Z,20.94
2019-01-11T00:49:34.055Z,20.98
2019-01-11T00:50:43.218Z,20.97
2019-01-11T00:51:52.142Z,21.03
2019-01-11T00:53:00.822Z,20.97
2019-01-11T00:54:10.245Z,20.92
2019-01-11T00:55:19.920Z,20.97
2019-01-11T00:56:29.342Z,20.98
2019-01-11T00:57:38.287Z,20.95
2019-01-11T00:58:47.750Z,20.91
2019-01-11T00:59:56.673Z,20.91
2019-01-11T01:01:05.865Z,20.89
2019-01-11T01:02:15.054Z,20.92
2019-01-11T01:03:24.462Z,20.8
2019-01-11T01:04:34.133Z,20.84
2019-01-11T01:05:43.818Z,20.89
2019-01-11T01:06:53.485Z,20.8
2019-01-11T01:08:02.408Z,20.84
2019-01-11T01:09:11.594Z,20.87
2019-01-11T01:10:20.766Z,20.91
2019-01-11T01:11:29.725Z,20.82
2019-01-11T01:12:39.642Z,20.88
2019-01-11T01:13:49.058Z,20.82
2019-01-11T01:14:58.733Z,20.79
2019-01-11T01:16:07.680Z,20.79
2019-01-11T01:17:16.898Z,20.76
2019-01-11T01:18:25.833Z,20.76
2019-01-11T01:19:35.014Z,20.79
2019-01-11T01:20:44.439Z,20.77
2019-01-11T01:21:53.617Z,20.79
2019-01-11T01:23:03.077Z,20.77
2019-01-11T01:24:12.258Z,20.77
2019-01-11T01:25:21.409Z,20.79
2019-01-11T01:26:30.327Z,20.76
2019-01-11T01:27:39.243Z,20.79
2019-01-11T01:28:48.670Z,20.8
2019-01-11T01:29:57.634Z,20.79
2019-01-11T01:31:06.807Z,20.62
2019-01-11T01:32:16.490Z,20.84
2019-01-11T01:33:25.925Z,20.74
2019-01-11T01:34:35.372Z,20.77
2019-01-11T01:35:44.544Z,20.69
2019-01-11T01:36:53.767Z,20.67
2019-01-11T01:38:03.425Z,20.82
2019-01-11T01:39:12.608Z,20.72
2019-01-11T01:40:22.278Z,20.64
2019-01-11T01:41:31.464Z,20.7
2019-01-11T01:42:40.883Z,20.69
2019-01-11T01:43:50.319Z,20.72
2019-01-11T01:44:59.237Z,20.69
2019-01-11T01:46:08.705Z,20.72
2019-01-11T01:47:17.886Z,20.7
2019-01-11T01:48:26.817Z,20.74
2019-01-11T01:49:36.271Z,20.73
2019-01-11T01:50:45.735Z,20.64
2019-01-11T01:51:54.909Z,20.69
2019-01-11T01:53:04.593Z,20.74
2019-01-11T01:54:13.794Z,20.69
2019-01-11T01:55:23.222Z,20.69
2019-01-11T01:56:32.177Z,20.72
2019-01-11T01:57:41.348Z,20.69
2019-01-11T01:58:50.534Z,20.72
2019-01-11T01:59:59.711Z,20.69
2019-01-11T02:01:08.897Z,20.7
2019-01-11T02:02:17.832Z,20.72
2019-01-11T02:03:27.498Z,20.7
2019-01-11T02:04:36.179Z,20.66
2019-01-11T02:05:45.602Z,20.61
2019-01-11T02:06:55.068Z,20.66
2019-01-11T02:08:04.749Z,20.61
2019-01-11T02:09:13.687Z,20.54
2019-01-11T02:10:22.862Z,20.67
2019-01-11T02:11:32.036Z,20.66
2019-01-11T02:12:41.232Z,20.64
2019-01-11T02:13:50.417Z,20.61
2019-01-11T02:14:59.575Z,20.57
2019-01-11T02:16:08.757Z,20.64
2019-01-11T02:17:18.426Z,20.55
2019-01-11T02:18:27.872Z,20.58
2019-01-11T02:19:37.817Z,20.61
2019-01-11T02:20:47.252Z,20.61
2019-01-11T02:21:56.660Z,20.54
2019-01-11T02:23:05.345Z,20.54
2019-01-11T02:24:14.252Z,20.55
2019-01-11T02:25:23.938Z,20.5
2019-01-11T02:26:33.109Z,20.47
2019-01-11T02:27:42.321Z,20.51
2019-01-11T02:28:51.260Z,20.41
2019-01-11T02:30:00.673Z,20.54
2019-01-11T02:31:10.665Z,20.5
2019-01-11T02:32:20.102Z,20.47
2019-01-11T02:33:29.798Z,20.47
2019-01-11T02:34:38.732Z,20.5
2019-01-11T02:35:48.171Z,20.55
2019-01-11T02:36:57.804Z,20.48
2019-01-11T02:38:07.488Z,20.47
2019-01-11T02:39:16.693Z,20.52
2019-01-11T02:40:26.622Z,20.52
2019-01-11T02:41:36.061Z,20.42
2019-01-11T02:42:45.739Z,20.43
2019-01-11T02:43:55.423Z,20.47
2019-01-11T02:45:04.927Z,20.42
2019-01-11T02:46:14.354Z,20.41
2019-01-11T02:47:23.275Z,20.39
2019-01-11T02:48:32.236Z,20.39
2019-01-11T02:49:45.208Z,20.36
2019-01-11T02:50:54.633Z,20.42
2019-01-11T02:52:04.580Z,20.36
2019-01-11T02:53:13.999Z,20.29
2019-01-11T02:54:22.911Z,20.33
2019-01-11T02:55:32.342Z,20.38
2019-01-11T02:56:42.007Z,20.36
2019-01-11T02:57:50.933Z,20.31
2019-01-11T02:59:00.373Z,20.38
2019-01-11T03:00:10.333Z,20.38
2019-01-11T03:01:20.015Z,20.35
2019-01-11T03:02:28.953Z,20.36
2019-01-11T03:03:38.632Z,20.36
2019-01-11T03:04:48.072Z,20.35
2019-01-11T03:05:57.497Z,20.39
2019-01-11T03:07:06.947Z,20.36
2019-01-11T03:08:16.139Z,20.36
2019-01-11T03:09:25.574Z,20.33
2019-01-11T03:10:34.569Z,20.31
2019-01-11T03:11:44.227Z,20.28
2019-01-11T03:12:53.653Z,20.24
2019-01-11T03:14:02.594Z,20.29
2019-01-11T03:15:12.273Z,20.28
2019-01-11T03:16:21.463Z,20.26
2019-01-11T03:17:30.395Z,20.32
2019-01-11T03:18:39.578Z,20.2
2019-01-11T03:19:52.758Z,20.2
2019-01-11T03:21:01.954Z,20.29
2019-01-11T03:22:11.396Z,20.21
2019-01-11T03:23:20.837Z,20.17
2019-01-11T03:24:30.048Z,20.26
2019-01-11T03:25:39.715Z,20.18
2019-01-11T03:26:49.396Z,20.21
2019-01-11T03:27:58.571Z,20.14
2019-01-11T03:29:07.999Z,20.28
2019-01-11T03:30:17.193Z,20.18
2019-01-11T03:31:26.908Z,20.16
2019-01-11T03:32:36.899Z,20.18
2019-01-11T03:33:46.650Z,20.2
2019-01-11T03:34:55.825Z,20.2
2019-01-11T03:36:05.253Z,20.2
2019-01-11T03:37:14.680Z,20.13
2019-01-11T03:38:23.647Z,20.1
2019-01-11T03:39:33.356Z,20.17
2019-01-11T03:40:42.814Z,20.06
2019-01-11T03:41:52.513Z,20.2
2019-01-11T03:43:01.948Z,20.13
2019-01-11T03:44:11.388Z,20.06
2019-01-11T03:45:21.104Z,20.14
2019-01-11T03:46:30.334Z,20.18
2019-01-11T03:47:40.005Z,20.11
2019-01-11T03:48:49.435Z,20.13
2019-01-11T03:49:59.863Z,20.03
2019-01-11T03:51:09.310Z,20.11
2019-01-11T03:52:18.728Z,20.13
2019-01-11T03:53:28.555Z,20.11
2019-01-11T03:54:37.234Z,20.1
2019-01-11T03:55:46.666Z,20.14
2019-01-11T03:56:55.838Z,20.13
2019-01-11T03:58:05.285Z,20.11
2019-01-11T03:59:14.473Z,20.08
2019-01-11T04:00:24.185Z,20.13
2019-01-11T04:01:33.648Z,20.13
2019-01-11T04:02:43.110Z,20.14
2019-01-11T04:03:52.538Z,20.08
2019-01-11T04:05:01.956Z,20.11
2019-01-11T04:06:11.388Z,20.02
2019-01-11T04:07:20.572Z,20.01
2019-01-11T04:08:30.263Z,20.1
2019-01-11T04:09:39.745Z,20.01
2019-01-11T04:10:49.430Z,20.08
2019-01-11T04:11:59.158Z,20.1
2019-01-11T04:13:07.896Z,19.96
2019-01-11T04:14:17.097Z,20.03
2019-01-11T04:15:26.521Z,20.1
2019-01-11T04:16:35.963Z,19.98
2019-01-11T04:17:45.128Z,20.03
2019-01-11T04:18:54.550Z,19.98
2019-01-11T04:20:06.682Z,20.05
2019-01-11T04:21:15.851Z,19.99
2019-01-11T04:22:25.269Z,20.02
2019-01-11T04:23:34.958Z,20.01
2019-01-11T04:24:44.638Z,20.02
2019-01-11T04:25:54.321Z,20.05
2019-01-11T04:27:03.995Z,20.01
2019-01-11T04:28:13.670Z,20.01
2019-01-11T04:29:23.630Z,20.01
2019-01-11T04:30:32.843Z,19.99
2019-01-11T04:31:42.520Z,20.05
2019-01-11T04:32:52.201Z,19.98
2019-01-11T04:34:02.117Z,19.98
2019-01-11T04:35:11.574Z,19.98
2019-01-11T04:36:21.050Z,19.98
2019-01-11T04:37:30.248Z,19.99
2019-01-11T04:38:39.719Z,19.99
2019-01-11T04:39:49.181Z,19.99
2019-01-11T04:40:58.387Z,19.96
2019-01-11T04:42:07.596Z,19.96
2019-01-11T04:43:17.039Z,19.98
2019-01-11T04:44:26.458Z,19.99
2019-01-11T04:45:35.890Z,19.98
2019-01-11T04:46:45.335Z,19.91
2019-01-11T04:47:55.277Z,20.03
2019-01-11T04:49:04.722Z,19.99
2019-01-11T04:50:14.769Z,19.92
2019-01-11T04:51:24.207Z,19.95
2019-01-11T04:52:33.910Z,19.94
2019-01-11T04:53:43.116Z,19.88
2019-01-11T04:54:52.824Z,19.84
2019-01-11T04:56:01.752Z,19.92
2019-01-11T04:57:11.188Z,19.83
2019-01-11T04:58:20.121Z,19.83
2019-01-11T04:59:29.579Z,19.92
2019-01-11T05:00:39.263Z,19.92
2019-01-11T05:01:48.453Z,19.91
2019-01-11T05:02:57.896Z,19.94
2019-01-11T05:04:07.101Z,19.83
2019-01-11T05:05:16.312Z,19.95
2019-01-11T05:06:25.493Z,19.84
2019-01-11T05:07:34.687Z,19.84
2019-01-11T05:08:44.127Z,19.94
2019-01-11T05:09:53.545Z,19.83
2019-01-11T05:11:03.076Z,19.83
2019-01-11T05:12:12.533Z,19.84
2019-01-11T05:13:21.479Z,19.87
2019-01-11T05:14:30.927Z,19.83
2019-01-11T05:15:40.104Z,19.83
2019-01-11T05:16:49.789Z,19.83
2019-01-11T05:17:59.216Z,19.83
2019-01-11T05:19:08.149Z,19.83
2019-01-11T05:20:21.386Z,19.8
2019-01-11T05:21:31.061Z,19.76
2019-01-11T05:22:40.232Z,19.81
2019-01-11T05:23:49.959Z,19.86
2019-01-11T05:24:59.156Z,19.8
2019-01-11T05:26:08.139Z,19.83
2019-01-11T05:27:17.594Z,19.83
2019-01-11T05:28:26.786Z,19.8
2019-01-11T05:29:36.231Z,19.76
2019-01-11T05:30:45.414Z,19.77
2019-01-11T05:31:54.610Z,19.77
2019-01-11T05:33:03.788Z,19.74
2019-01-11T05:34:13.242Z,19.76
2019-01-11T05:35:22.918Z,19.73
2019-01-11T05:36:32.375Z,19.73
2019-01-11T05:37:42.307Z,19.83
2019-01-11T05:38:51.508Z,19.73
2019-01-11T05:40:01.194Z,19.81
2019-01-11T05:41:10.621Z,19.73
2019-01-11T05:42:20.059Z,19.71
2019-01-11T05:43:29.026Z,19.73
2019-01-11T05:44:38.714Z,19.78
2019-01-11T05:45:48.435Z,19.73
2019-01-11T05:46:57.679Z,19.8
2019-01-11T05:48:06.872Z,19.74
2019-01-11T05:49:16.058Z,19.78
2019-01-11T05:50:29.144Z,19.73
2019-01-11T05:51:39.088Z,19.76
2019-01-11T05:52:48.779Z,19.73
2019-01-11T05:53:58.256Z,19.73
2019-01-11T05:55:07.963Z,19.73
2019-01-11T05:56:17.484Z,19.73
2019-01-11T05:57:27.168Z,19.73
2019-01-11T05:58:36.608Z,19.69
2019-01-11T05:59:46.058Z,19.77
2019-01-11T06:00:55.494Z,19.74
2019-01-11T06:02:05.183Z,19.74
2019-01-11T06:03:14.880Z,19.73
2019-01-11T06:04:23.562Z,19.71
2019-01-11T06:05:33.040Z,19.69
2019-01-11T06:06:42.717Z,19.71
2019-01-11T06:07:52.417Z,19.69
2019-01-11T06:09:01.856Z,19.71
2019-01-11T06:10:11.603Z,19.73
2019-01-11T06:11:20.810Z,19.71
2019-01-11T06:12:30.011Z,19.73
2019-01-11T06:13:39.178Z,19.63
2019-01-11T06:14:48.366Z,19.71
2019-01-11T06:15:57.542Z,19.66
2019-01-11T06:17:06.972Z,19.62
2019-01-11T06:18:15.914Z,19.65
2019-01-11T06:19:24.628Z,19.68
2019-01-11T06:20:34.789Z,19.66
2019-01-11T06:21:44.050Z,19.66
2019-01-11T06:22:53.504Z,19.59
2019-01-11T06:24:03.182Z,19.63
2019-01-11T06:25:12.868Z,19.65
2019-01-11T06:26:22.051Z,19.65
2019-01-11T06:27:30.980Z,19.73
2019-01-11T06:28:39.900Z,19.69
2019-01-11T06:29:49.578Z,19.66
2019-01-11T06:30:58.496Z,19.66
2019-01-11T06:32:07.410Z,19.66
2019-01-11T06:33:16.615Z,19.63
2019-01-11T06:34:25.289Z,19.71
2019-01-11T06:35:35.241Z,19.66
2019-01-11T06:36:44.919Z,19.66
2019-01-11T06:37:54.118Z,19.59
2019-01-11T06:39:03.320Z,19.73
2019-01-11T06:40:12.733Z,19.71
2019-01-11T06:41:21.671Z,19.66
2019-01-11T06:42:31.118Z,19.66
2019-01-11T06:43:40.551Z,19.62
2019-01-11T06:44:49.711Z,19.65
2019-01-11T06:45:58.892Z,19.63
2019-01-11T06:47:08.132Z,19.63
2019-01-11T06:48:17.316Z,19.69
2019-01-11T06:49:26.497Z,19.63
2019-01-11T06:50:41.349Z,19.63
2019-01-11T06:51:50.537Z,19.63
2019-01-11T06:53:00.466Z,19.62
2019-01-11T06:54:09.925Z,19.63
2019-01-11T06:55:18.627Z,19.65
2019-01-11T06:56:28.060Z,19.65
2019-01-11T06:57:37.231Z,19.71
2019-01-11T06:58:46.686Z,19.68
2019-01-11T06:59:55.603Z,19.69
2019-01-11T07:01:04.873Z,19.69
2019-01-11T07:02:13.801Z,19.65
2019-01-11T07:03:24.234Z,19.77
2019-01-11T07:04:33.421Z,19.76
2019-01-11T07:05:42.362Z,19.76
2019-01-11T07:06:52.025Z,19.74
2019-01-11T07:08:00.949Z,19.74
2019-01-11T07:09:10.127Z,19.74
2019-01-11T07:10:19.298Z,19.73
2019-01-11T07:11:28.983Z,19.76
2019-01-11T07:12:38.181Z,19.69
2019-01-11T07:13:47.363Z,19.73
2019-01-11T07:14:56.799Z,19.74
2019-01-11T07:16:06.712Z,19.76
2019-01-11T07:17:15.637Z,19.77
2019-01-11T07:18:25.060Z,19.81
2019-01-11T07:19:34.054Z,19.76
2019-01-11T07:20:47.457Z,19.74
2019-01-11T07:21:57.133Z,19.78
2019-01-11T07:23:06.600Z,19.76
2019-01-11T07:24:16.033Z,19.73
2019-01-11T07:25:25.263Z,19.73
2019-01-11T07:26:34.215Z,19.65
2019-01-11T07:27:43.432Z,19.68
2019-01-11T07:28:53.129Z,19.71
2019-01-11T07:30:02.339Z,19.69
2019-01-11T07:31:12.009Z,19.61
2019-01-11T07:32:21.962Z,19.61
2019-01-11T07:33:31.151Z,19.68
2019-01-11T07:34:40.838Z,19.71
2019-01-11T07:35:49.792Z,19.66
2019-01-11T07:36:59.227Z,19.71
2019-01-11T07:38:08.931Z,19.65
2019-01-11T07:39:17.852Z,19.76
2019-01-11T07:40:27.272Z,19.68
2019-01-11T07:41:36.230Z,19.69
2019-01-11T07:42:45.407Z,19.69
2019-01-11T07:43:55.358Z,19.62
2019-01-11T07:45:04.295Z,19.66
2019-01-11T07:46:13.744Z,19.58
2019-01-11T07:47:24.170Z,19.62
2019-01-11T07:48:33.186Z,19.59
2019-01-11T07:49:43.109Z,19.59
2019-01-11T07:50:54.249Z,19.55
2019-01-11T07:52:03.191Z,19.54
2019-01-11T07:53:12.614Z,19.55
2019-01-11T07:54:21.304Z,19.47
2019-01-11T07:55:30.238Z,19.5
2019-01-11T07:56:39.935Z,19.5
2019-01-11T07:57:49.370Z,19.5
2019-01-11T07:58:58.823Z,19.46
2019-01-11T08:00:08.266Z,19.48
2019-01-11T08:01:17.465Z,19.54
2019-01-11T08:02:27.175Z,19.51
2019-01-11T08:03:37.109Z,19.56
2019-01-11T08:04:46.805Z,19.55
2019-01-11T08:05:55.772Z,19.59
2019-01-11T08:07:05.708Z,19.68
2019-01-11T08:08:15.144Z,19.69
2019-01-11T08:09:24.813Z,19.68
2019-01-11T08:10:34.248Z,19.74
2019-01-11T08:11:44.182Z,19.84
2019-01-11T08:12:53.654Z,19.88
2019-01-11T08:14:03.101Z,19.84
2019-01-11T08:15:12.512Z,20.01
2019-01-11T08:16:21.702Z,20.01
2019-01-11T08:17:30.896Z,20.1
2019-01-11T08:18:40.102Z,20.14
2019-01-11T08:19:49.020Z,20.13
2019-01-11T08:21:00.981Z,20.2
2019-01-11T08:22:10.421Z,20.21
2019-01-11T08:23:19.896Z,20.32
2019-01-11T08:24:29.595Z,20.38
2019-01-11T08:25:39.281Z,20.36
2019-01-11T08:26:48.209Z,20.47
2019-01-11T08:27:57.635Z,20.55
2019-01-11T08:29:07.070Z,20.52
2019-01-11T08:30:16.798Z,20.57
2019-01-11T08:31:26.060Z,20.66
2019-01-11T08:32:42.150Z,20.69
2019-01-11T08:33:51.343Z,20.72
2019-01-11T08:35:00.792Z,20.74
2019-01-11T08:36:10.226Z,20.79
2019-01-11T08:37:19.916Z,20.76
2019-01-11T08:38:29.623Z,20.82
2019-01-11T08:39:39.320Z,20.87
2019-01-11T08:40:49.046Z,20.91
2019-01-11T08:41:58.245Z,20.79
2019-01-11T08:43:06.924Z,20.88
2019-01-11T08:44:15.864Z,20.84
2019-01-11T08:45:25.306Z,20.94
2019-01-11T08:46:35.058Z,20.92
2019-01-11T08:47:44.493Z,20.95
2019-01-11T08:48:53.696Z,20.92
2019-01-11T08:50:02.874Z,20.94
2019-01-11T08:51:12.637Z,20.97
2019-01-11T08:52:21.840Z,20.97
2019-01-11T08:53:31.507Z,20.92
2019-01-11T08:54:40.964Z,20.98
2019-01-11T08:55:50.399Z,20.97
2019-01-11T08:56:59.852Z,20.89
2019-01-11T08:58:09.057Z,20.94
2019-01-11T08:59:18.499Z,20.91
2019-01-11T09:00:27.663Z,20.94
2019-01-11T09:01:37.358Z,20.85
2019-01-11T09:02:46.056Z,20.85
2019-01-11T09:03:55.229Z,20.88
2019-01-11T09:05:04.437Z,20.88
2019-01-11T09:06:13.414Z,20.85
2019-01-11T09:07:23.138Z,20.87
2019-01-11T09:08:32.862Z,20.89
2019-01-11T09:09:42.045Z,20.79
2019-01-11T09:10:51.244Z,20.79
2019-01-11T09:12:00.181Z,20.74
2019-01-11T09:13:09.622Z,20.79
2019-01-11T09:14:18.573Z,20.8
2019-01-11T09:15:27.777Z,20.74
2019-01-11T09:16:37.004Z,20.79
2019-01-11T09:17:46.436Z,20.64
2019-01-11T09:18:55.883Z,20.64
2019-01-11T09:20:05.076Z,20.67
2019-01-11T09:21:15.938Z,20.84
2019-01-11T09:22:25.355Z,20.72
2019-01-11T09:23:34.564Z,20.67
2019-01-11T09:24:44.252Z,20.69
2019-01-11T09:25:53.202Z,20.72
2019-01-11T09:27:02.428Z,20.73
2019-01-11T09:28:12.114Z,20.69
2019-01-11T09:29:21.309Z,20.73
2019-01-11T09:30:30.753Z,20.67
2019-01-11T09:31:39.945Z,20.69
2019-01-11T09:32:49.389Z,20.72
2019-01-11T09:33:58.605Z,20.62
2019-01-11T09:35:08.310Z,20.62
2019-01-11T09:36:17.525Z,20.67
2019-01-11T09:37:26.982Z,20.59
2019-01-11T09:38:36.420Z,20.62
2019-01-11T09:39:46.104Z,20.64
2019-01-11T09:40:55.574Z,20.7
2019-01-11T09:42:04.523Z,20.69
2019-01-11T09:43:14.215Z,20.59
2019-01-11T09:44:24.141Z,20.62
2019-01-11T09:45:33.343Z,20.64
2019-01-11T09:46:42.838Z,20.57
2019-01-11T09:47:52.093Z,20.58
2019-01-11T09:49:01.552Z,20.48
2019-01-11T09:50:10.981Z,20.57
2019-01-11T09:51:20.187Z,20.57
2019-01-11T09:52:29.142Z,20.57
2019-01-11T09:53:37.852Z,20.51
2019-01-11T09:54:48.228Z,20.54
2019-01-11T09:55:57.934Z,20.54
2019-01-11T09:57:07.117Z,20.55
2019-01-11T09:58:16.796Z,20.52
2019-01-11T09:59:25.971Z,20.41
2019-01-11T10:00:40.095Z,20.52
2019-01-11T10:01:50.478Z,20.52
2019-01-11T10:02:59.907Z,20.42
2019-01-11T10:04:09.611Z,20.42
2019-01-11T10:05:18.837Z,20.54
2019-01-11T10:06:28.029Z,20.48
2019-01-11T10:07:37.214Z,20.47
2019-01-11T10:08:46.412Z,20.51
2019-01-11T10:09:55.615Z,20.5
2019-01-11T10:11:05.310Z,20.52
2019-01-11T10:12:14.976Z,20.48
2019-01-11T10:13:23.903Z,20.51
2019-01-11T10:14:32.588Z,20.54
2019-01-11T10:15:42.015Z,20.51
2019-01-11T10:16:50.974Z,20.41
2019-01-11T10:18:00.396Z,20.43
2019-01-11T10:19:09.601Z,20.41
2019-01-11T10:20:19.304Z,20.51
2019-01-11T10:21:28.914Z,20.52
2019-01-11T10:22:38.104Z,20.43
2019-01-11T10:23:47.311Z,20.42
2019-01-11T10:24:56.768Z,20.48
2019-01-11T10:26:06.464Z,20.42
2019-01-11T10:27:16.148Z,20.43
2019-01-11T10:28:25.900Z,20.41
2019-01-11T10:29:34.850Z,20.38
2019-01-11T10:30:44.040Z,20.43
2019-01-11T10:31:53.729Z,20.38
2019-01-11T10:33:03.153Z,20.38
2019-01-11T10:34:12.609Z,20.36
2019-01-11T10:35:21.303Z,20.43
2019-01-11T10:36:30.980Z,20.35
2019-01-11T10:37:40.163Z,20.42
2019-01-11T10:38:49.603Z,20.41
2019-01-11T10:39:58.547Z,20.43
2019-01-11T10:41:07.727Z,20.41
2019-01-11T10:42:16.683Z,20.42
2019-01-11T10:43:25.622Z,20.39
2019-01-11T10:44:34.541Z,20.41
2019-01-11T10:45:43.717Z,20.38
2019-01-11T10:46:53.948Z,20.41
2019-01-11T10:48:03.630Z,20.41
2019-01-11T10:49:12.857Z,20.32
2019-01-11T10:50:22.550Z,20.36
2019-01-11T10:51:32.795Z,20.38
2019-01-11T10:52:42.006Z,20.36
2019-01-11T10:53:50.965Z,20.33
2019-01-11T10:55:00.187Z,20.33
2019-01-11T10:56:09.622Z,20.43
2019-01-11T10:57:19.308Z,20.39
2019-01-11T10:58:29.223Z,20.36
2019-01-11T10:59:38.414Z,20.32
2019-01-11T11:00:47.854Z,20.38
2019-01-11T11:01:57.303Z,20.39
2019-01-11T11:03:06.243Z,20.42
2019-01-11T11:04:15.178Z,20.36
2019-01-11T11:05:23.937Z,20.35
2019-01-11T11:06:33.866Z,20.29
2019-01-11T11:07:43.109Z,20.35
2019-01-11T11:08:52.565Z,20.35
2019-01-11T11:10:01.504Z,20.39
2019-01-11T11:11:10.722Z,20.33
2019-01-11T11:12:23.824Z,20.36
2019-01-11T11:13:33.271Z,20.38
2019-01-11T11:14:42.700Z,20.32
2019-01-11T11:15:51.644Z,20.42
2019-01-11T11:17:00.576Z,20.42
2019-01-11T11:18:10.005Z,20.32
2019-01-11T11:19:19.470Z,20.39
2019-01-11T11:20:28.405Z,20.31
2019-01-11T11:21:39.664Z,20.39
2019-01-11T11:22:49.347Z,20.31
2019-01-11T11:23:58.509Z,20.32
2019-01-11T11:25:07.702Z,20.36
2019-01-11T11:26:16.887Z,20.36
2019-01-11T11:27:26.316Z,20.41
2019-01-11T11:28:35.513Z,20.35
2019-01-11T11:29:44.695Z,20.38
2019-01-11T11:30:57.205Z,20.39
2019-01-11T11:32:06.385Z,20.41
2019-01-11T11:33:15.590Z,20.33
2019-01-11T11:34:24.531Z,20.38
2019-01-11T11:35:33.715Z,20.39
2019-01-11T11:36:42.447Z,20.35
2019-01-11T11:37:51.636Z,20.41
2019-01-11T11:39:00.571Z,20.33
2019-01-11T11:40:09.741Z,20.41
2019-01-11T11:41:19.417Z,20.38
2019-01-11T11:42:28.593Z,20.48
2019-01-11T11:43:38.271Z,20.43
2019-01-11T11:44:47.190Z,20.47
2019-01-11T11:45:56.882Z,20.54
2019-01-11T11:47:06.069Z,20.5
2019-01-11T11:48:15.747Z,20.43
2019-01-11T11:49:25.167Z,20.57
2019-01-11T11:50:34.856Z,20.54
2019-01-11T11:51:46.341Z,20.43
2019-01-11T11:52:55.527Z,20.55
2019-01-11T11:54:04.708Z,20.55
2019-01-11T11:55:13.410Z,20.5
2019-01-11T11:56:23.079Z,20.47
2019-01-11T11:57:32.757Z,20.54
2019-01-11T11:58:41.745Z,20.54
2019-01-11T11:59:50.686Z,20.48
2019-01-11T12:01:00.124Z,20.55
2019-01-11T12:02:09.098Z,20.52
2019-01-11T12:03:24.091Z,20.54
2019-01-11T12:04:33.548Z,20.58
2019-01-11T12:05:43.005Z,20.58
2019-01-11T12:06:52.704Z,20.52
2019-01-11T12:08:01.903Z,20.42
2019-01-11T12:09:11.335Z,20.47
2019-01-11T12:10:20.760Z,20.43
2019-01-11T12:11:30.443Z,20.51
2019-01-11T12:12:39.376Z,20.43
2019-01-11T12:13:48.307Z,20.51
2019-01-11T12:14:57.490Z,20.51
2019-01-11T12:16:06.934Z,20.42
2019-01-11T12:17:16.401Z,20.54
2019-01-11T12:18:25.349Z,20.42
2019-01-11T12:19:34.297Z,20.5
2019-01-11T12:20:43.725Z,20.41
2019-01-11T12:21:53.156Z,20.41
2019-01-11T12:23:08.680Z,20.51
2019-01-11T12:24:18.134Z,20.5
2019-01-11T12:25:27.563Z,20.48
2019-01-11T12:26:36.519Z,20.51
2019-01-11T12:27:45.697Z,20.55
2019-01-11T12:28:55.405Z,20.5
2019-01-11T12:30:04.850Z,20.54
2019-01-11T12:31:14.307Z,20.54
2019-01-11T12:32:24.272Z,20.57
2019-01-11T12:33:33.740Z,20.52
2019-01-11T12:34:42.930Z,20.47
2019-01-11T12:35:52.637Z,20.57
2019-01-11T12:37:02.331Z,20.39
2019-01-11T12:38:18.229Z,20.5
2019-01-11T12:39:27.418Z,20.5
2019-01-11T12:40:37.107Z,20.42
2019-01-11T12:41:46.566Z,20.51
2019-01-11T12:42:55.504Z,20.51
2019-01-11T12:44:04.952Z,20.54
2019-01-11T12:45:14.634Z,20.38
2019-01-11T12:46:24.337Z,20.47
2019-01-11T12:47:34.025Z,20.54
2019-01-11T12:48:42.960Z,20.38
2019-01-11T12:49:51.908Z,20.43
2019-01-11T12:51:01.092Z,20.47
2019-01-11T12:52:10.266Z,20.51
2019-01-11T12:53:19.196Z,20.52
2019-01-11T12:54:28.143Z,20.42
2019-01-11T12:55:37.330Z,20.48
2019-01-11T12:56:46.787Z,20.52
2019-01-11T12:57:55.951Z,20.48
2019-01-11T12:59:05.416Z,20.47
2019-01-11T13:00:14.839Z,20.52
2019-01-11T13:01:24.266Z,20.48
2019-01-11T13:02:33.711Z,20.48
2019-01-11T13:03:42.891Z,20.5
2019-01-11T13:04:52.321Z,20.42
2019-01-11T13:06:01.499Z,20.43
2019-01-11T13:07:10.698Z,20.43
2019-01-11T13:08:19.650Z,20.41
2019-01-11T13:09:29.594Z,20.48
2019-01-11T13:10:38.788Z,20.43
2019-01-11T13:11:47.709Z,20.47
2019-01-11T13:12:56.894Z,20.41
2019-01-11T13:14:06.310Z,20.42
2019-01-11T13:15:15.740Z,20.41
2019-01-11T13:16:24.921Z,20.5
2019-01-11T13:17:33.854Z,20.36
2019-01-11T13:18:42.534Z,20.39
2019-01-11T13:19:51.976Z,20.41
2019-01-11T13:21:01.433Z,20.43
2019-01-11T13:22:10.886Z,20.35
2019-01-11T13:23:20.337Z,20.43
2019-01-11T13:24:29.518Z,20.38
2019-01-11T13:25:39.197Z,20.42
2019-01-11T13:26:48.863Z,20.36
2019-01-11T13:27:58.299Z,20.36
2019-01-11T13:29:07.497Z,20.43
2019-01-11T13:30:16.430Z,20.39
2019-01-11T13:31:25.614Z,20.41
2019-01-11T13:32:34.793Z,20.39
2019-01-11T13:33:44.479Z,20.32
2019-01-11T13:34:53.417Z,20.39
2019-01-11T13:36:03.338Z,20.39
2019-01-11T13:37:12.267Z,20.38
2019-01-11T13:38:21.437Z,20.36
2019-01-11T13:39:30.611Z,20.42
2019-01-11T13:40:39.537Z,20.39
2019-01-11T13:41:48.473Z,20.33
2019-01-11T13:42:58.171Z,20.33
2019-01-11T13:44:07.386Z,20.31
2019-01-11T13:45:16.809Z,20.35
2019-01-11T13:46:27.516Z,20.41
2019-01-11T13:47:37.858Z,20.29
2019-01-11T13:48:47.297Z,20.29
2019-01-11T13:49:56.510Z,20.38
2019-01-11T13:51:06.190Z,20.36
2019-01-11T13:52:15.397Z,20.41
2019-01-11T13:53:25.309Z,20.38
2019-01-11T13:54:34.518Z,20.33
2019-01-11T13:55:43.694Z,20.35
2019-01-11T13:56:53.124Z,20.39
2019-01-11T13:58:02.814Z,20.39
2019-01-11T13:59:12.001Z,20.42
2019-01-11T14:00:20.922Z,20.36
2019-01-11T14:01:30.350Z,20.35
2019-01-11T14:02:40.049Z,20.28
2019-01-11T14:03:49.483Z,20.39
2019-01-11T14:04:58.931Z,20.29
2019-01-11T14:06:08.097Z,20.38
2019-01-11T14:07:16.789Z,20.39
2019-01-11T14:08:25.989Z,20.36
2019-01-11T14:09:34.927Z,20.39
2019-01-11T14:10:44.108Z,20.31
2019-01-11T14:11:52.818Z,20.32
2019-01-11T14:13:01.749Z,20.32
2019-01-11T14:14:11.197Z,20.29
2019-01-11T14:15:20.902Z,20.36
2019-01-11T14:16:30.081Z,20.28
2019-01-11T14:17:39.014Z,20.32
2019-01-11T14:18:48.690Z,20.32
2019-01-11T14:19:57.604Z,20.31
2019-01-11T14:21:07.047Z,20.33
2019-01-11T14:22:18.712Z,20.36
2019-01-11T14:23:28.393Z,20.26
2019-01-11T14:24:37.853Z,20.41
2019-01-11T14:25:47.542Z,20.38
2019-01-11T14:26:56.474Z,20.32
2019-01-11T14:28:05.769Z,20.31
2019-01-11T14:29:14.962Z,20.32
2019-01-11T14:30:24.126Z,20.36
2019-01-11T14:31:33.295Z,20.41
2019-01-11T14:32:42.231Z,20.42
2019-01-11T14:33:51.924Z,20.52
2019-01-11T14:35:01.366Z,20.48
2019-01-11T14:36:10.807Z,20.51
2019-01-11T14:37:19.986Z,20.47
2019-01-11T14:38:29.470Z,20.52
2019-01-11T14:39:39.460Z,20.51
2019-01-11T14:40:48.642Z,20.54
2019-01-11T14:41:58.202Z,20.52
2019-01-11T14:43:07.631Z,20.43
2019-01-11T14:44:17.584Z,20.57
2019-01-11T14:45:26.508Z,20.42
2019-01-11T14:46:35.963Z,20.47
2019-01-11T14:47:45.429Z,20.55
2019-01-11T14:48:54.887Z,20.51
2019-01-11T14:50:04.141Z,20.52
2019-01-11T14:51:13.322Z,20.55
2019-01-11T14:52:25.373Z,20.55
2019-01-11T14:53:34.572Z,20.48
2019-01-11T14:54:43.511Z,20.52
2019-01-11T14:55:58.651Z,20.47
2019-01-11T14:57:08.077Z,20.43